Time;durP1;ratioP1;P1;durP2;ratioP2;P2;SDS_P1;SDS_P2;PMS_P1;PMS_P2;Temp;Humidity;BMP_temperature;BMP_pressure;BME280_temperature;BME280_humidity;BME280_pressure;Samples;Min_cycle;Max_cycle;Signal;HPM_P1;HPM_P2
2020/12/25 00:01:47;;;;;;;9.50;5.70;;;;;;;8.26;86.05;99702.81;5114563;28;20064;-63
2020/12/25 00:04:12;;;;;;;6.40;4.07;;;;;;;8.29;86.02;99710.41;5115550;28;20047;-63
2020/12/25 00:06:38;;;;;;;7.45;3.88;;;;;;;8.29;85.84;99708.38;5114460;28;20062;-63
2020/12/25 00:09:05;;;;;;;9.23;3.40;;;;;;;8.27;85.35;99704.41;5099988;28;20035;-63
2020/12/25 00:11:35;;;;;;;8.43;4.38;;;;;;;8.28;85.83;99706.00;5118013;28;20068;-63
2020/12/25 00:14:01;;;;;;;10.15;3.97;;;;;;;8.23;85.56;99703.63;5118073;28;20035;-63
2020/12/25 00:16:28;;;;;;;5.80;4.00;;;;;;;8.23;86.18;99704.41;5117989;28;20028;-62
2020/12/25 00:18:54;;;;;;;4.88;3.42;;;;;;;8.22;85.97;99705.63;5117921;28;20023;-63
2020/12/25 00:21:20;;;;;;;5.45;3.35;;;;;;;8.20;85.55;99716.38;5099802;28;20030;-63
2020/12/25 00:23:45;;;;;;;10.25;4.38;;;;;;;8.25;85.82;99720.81;5110103;28;20060;-62
2020/12/25 00:26:11;;;;;;;7.00;3.65;;;;;;;8.28;85.88;99731.19;5112991;28;20080;-63
2020/12/25 00:28:36;;;;;;;9.27;3.60;;;;;;;8.23;85.68;99732.41;5117855;28;20023;-58
2020/12/25 00:31:01;;;;;;;7.55;4.07;;;;;;;8.22;85.68;99724.41;5118158;28;20315;-61
2020/12/25 00:33:27;;;;;;;13.52;6.90;;;;;;;8.24;86.17;99717.22;5116788;28;20023;-63
2020/12/25 00:35:52;;;;;;;12.63;5.43;;;;;;;8.24;86.15;99734.00;5117740;28;20019;-65
2020/12/25 00:38:17;;;;;;;7.93;4.35;;;;;;;8.22;85.95;99741.22;5117623;28;20314;-63
2020/12/25 00:40:43;;;;;;;11.80;5.32;;;;;;;8.18;85.59;99729.19;5117146;28;20020;-62
2020/12/25 00:43:09;;;;;;;5.70;3.90;;;;;;;8.16;85.83;99734.41;5117759;28;20381;-62
2020/12/25 00:45:35;;;;;;;8.13;4.18;;;;;;;8.18;86.22;99746.78;5117622;28;20110;-62
2020/12/25 00:48:01;;;;;;;8.35;5.00;;;;;;;8.18;86.10;99738.38;5117736;28;20023;-63
2020/12/25 00:50:26;;;;;;;11.27;5.85;;;;;;;8.18;85.70;99737.59;5116700;28;20035;-61
2020/12/25 00:52:51;;;;;;;8.52;5.03;;;;;;;8.16;86.06;99738.00;5117635;28;20020;-63
2020/12/25 00:55:17;;;;;;;10.30;4.90;;;;;;;8.17;86.07;99733.19;5117092;28;20419;-63
2020/12/25 00:57:42;;;;;;;6.68;4.72;;;;;;;8.15;85.96;99739.19;5115742;28;20026;-62
2020/12/25 01:00:07;;;;;;;9.30;5.05;;;;;;;8.14;85.84;99732.00;5117252;28;20438;-63
2020/12/25 01:02:34;;;;;;;11.93;6.40;;;;;;;8.10;86.48;99738.81;5098809;28;20054;-62
2020/12/25 01:05:00;;;;;;;10.95;5.53;;;;;;;8.08;86.12;99730.81;5117107;28;20349;-63
2020/12/25 01:07:25;;;;;;;13.68;7.25;;;;;;;8.06;86.70;99722.03;5116852;28;20034;-63
2020/12/25 01:09:50;;;;;;;10.38;5.90;;;;;;;8.06;86.39;99725.63;5107555;28;20061;-62
2020/12/25 01:12:16;;;;;;;14.98;6.97;;;;;;;8.04;86.29;99708.44;5116987;28;20314;-63
2020/12/25 01:14:41;;;;;;;12.90;6.25;;;;;;;8.06;86.17;99714.44;5116908;28;20023;-63
2020/12/25 01:17:06;;;;;;;8.55;4.68;;;;;;;8.03;86.24;99715.22;5116684;28;20454;-64
2020/12/25 01:19:32;;;;;;;5.47;3.45;;;;;;;8.06;87.08;99710.84;5116692;28;20106;-62
2020/12/25 01:21:57;;;;;;;6.18;3.58;;;;;;;8.05;86.51;99715.63;5116778;28;20015;-63
2020/12/25 01:24:25;;;;;;;6.57;3.78;;;;;;;8.03;86.42;99720.84;5116530;28;20038;-62
2020/12/25 01:26:51;;;;;;;5.47;3.72;;;;;;;8.02;86.63;99729.63;5116850;28;20311;-63
2020/12/25 01:29:16;;;;;;;9.70;3.50;;;;;;;8.01;86.52;99733.63;5116738;28;20034;-62
2020/12/25 01:31:41;;;;;;;7.55;4.57;;;;;;;7.98;86.56;99728.84;5116329;28;20016;-63
2020/12/25 01:34:07;;;;;;;7.75;4.03;;;;;;;7.96;86.58;99726.44;5116682;28;20030;-62
2020/12/25 01:36:32;;;;;;;8.65;4.65;;;;;;;7.94;87.22;99716.81;5116216;28;20034;-62
2020/12/25 01:38:57;;;;;;;8.85;4.57;;;;;;;7.91;87.04;99724.03;5116493;28;20025;-62
2020/12/25 01:41:23;;;;;;;7.68;4.00;;;;;;;7.90;87.48;99725.22;5116168;28;20024;-63
2020/12/25 01:43:48;;;;;;;7.85;3.85;;;;;;;7.90;87.17;99730.81;5116740;28;20061;-63
2020/12/25 01:46:15;;;;;;;8.25;5.00;;;;;;;7.90;87.31;99730.03;5116358;28;20042;-64
2020/12/25 01:48:43;;;;;;;5.60;4.45;;;;;;;7.91;87.46;99734.41;5115830;28;20024;-63
2020/12/25 01:51:12;;;;;;;5.63;4.00;;;;;;;7.95;87.28;99752.03;5116193;28;20461;-63
2020/12/25 01:53:39;;;;;;;6.82;4.20;;;;;;;7.97;87.87;99746.84;5115938;28;20034;-63
2020/12/25 01:56:04;;;;;;;5.20;3.75;;;;;;;7.98;87.03;99734.44;5116287;28;20055;-63
2020/12/25 01:58:32;;;;;;;5.35;3.53;;;;;;;8.00;87.31;99746.81;5116024;28;20058;-63
2020/12/25 02:00:58;;;;;;;5.45;3.95;;;;;;;8.01;87.21;99753.22;5116071;28;20027;-63
2020/12/25 02:03:23;;;;;;;4.18;3.20;;;;;;;7.99;87.32;99739.63;5116065;28;20020;-63
2020/12/25 02:05:48;;;;;;;4.35;3.40;;;;;;;7.97;86.97;99744.03;5116371;28;20072;-63
2020/12/25 02:08:15;;;;;;;4.05;3.28;;;;;;;7.96;87.23;99751.63;5115836;28;20116;-64
2020/12/25 02:10:40;;;;;;;6.70;4.05;;;;;;;7.96;87.43;99751.63;5116239;28;20023;-63
2020/12/25 02:13:07;;;;;;;4.43;3.63;;;;;;;7.97;87.72;99741.25;5116241;28;20368;-63
2020/12/25 02:15:32;;;;;;;4.65;3.03;;;;;;;7.98;87.45;99740.03;5115662;28;20055;-63
2020/12/25 02:17:58;;;;;;;7.47;4.15;;;;;;;7.97;87.23;99738.44;5115888;28;20326;-63
2020/12/25 02:20:23;;;;;;;8.07;4.95;;;;;;;7.97;87.68;99735.63;5115884;28;20615;-63
2020/12/25 02:22:49;;;;;;;6.57;3.75;;;;;;;7.99;87.68;99722.03;5115586;28;20028;-64
2020/12/25 02:25:16;;;;;;;5.70;3.40;;;;;;;7.98;87.31;99726.84;5116039;28;20031;-64
2020/12/25 02:27:41;;;;;;;6.60;3.60;;;;;;;8.01;87.24;99736.44;5115773;28;20023;-63
2020/12/25 02:30:07;;;;;;;7.82;4.22;;;;;;;8.07;87.45;99724.41;5116074;28;20024;-61
2020/12/25 02:32:34;;;;;;;7.85;4.57;;;;;;;8.03;87.38;99728.44;5115492;28;20034;-63
2020/12/25 02:34:59;;;;;;;5.03;3.88;;;;;;;8.00;86.61;99723.63;5115894;28;20024;-65
2020/12/25 02:37:25;;;;;;;7.72;4.07;;;;;;;7.96;86.90;99722.84;5115596;28;20101;-63
2020/12/25 02:39:51;;;;;;;6.40;3.92;;;;;;;7.98;87.76;99726.03;5115638;28;20076;-64
2020/12/25 02:42:16;;;;;;;5.00;3.83;;;;;;;8.00;87.41;99726.44;5116067;28;20016;-64
2020/12/25 02:44:43;;;;;;;6.78;4.47;;;;;;;7.99;87.63;99728.44;5115637;28;20331;-63
2020/12/25 02:47:09;;;;;;;6.03;4.35;;;;;;;7.96;87.68;99722.84;5115656;28;20028;-63
2020/12/25 02:49:34;;;;;;;7.10;5.05;;;;;;;7.98;86.86;99726.03;5115485;28;20039;-64
2020/12/25 02:51:59;;;;;;;6.85;5.50;;;;;;;7.96;87.09;99726.44;5115533;28;20426;-63
2020/12/25 02:54:25;;;;;;;7.70;4.75;;;;;;;7.95;86.64;99726.84;5115777;28;20407;-64
2020/12/25 02:56:50;;;;;;;4.75;3.10;;;;;;;7.90;87.54;99735.63;5115938;28;20012;-62
2020/12/25 02:59:15;;;;;;;8.43;4.13;;;;;;;7.91;87.51;99731.63;5119816;28;20042;-63
2020/12/25 03:01:41;;;;;;;6.95;4.95;;;;;;;7.90;87.75;99730.03;5119496;28;20016;-63
2020/12/25 03:04:06;;;;;;;8.02;5.25;;;;;;;7.89;87.56;99739.63;5119398;28;20047;-62
2020/12/25 03:06:31;;;;;;;8.05;4.78;;;;;;;7.91;87.69;99743.63;5119170;28;20050;-63
2020/12/25 03:08:57;;;;;;;3.88;3.13;;;;;;;7.96;87.79;99739.63;5119573;28;20024;-63
2020/12/25 03:11:22;;;;;;;7.30;2.75;;;;;;;7.97;87.33;99750.44;5119394;28;20054;-63
2020/12/25 03:13:47;;;;;;;2.70;2.30;;;;;;;8.01;87.32;99751.22;5101239;28;20084;-63
2020/12/25 03:16:13;;;;;;;2.20;2.00;;;;;;;8.04;87.16;99749.63;5101464;28;20023;-64
2020/12/25 03:18:38;;;;;;;3.95;1.92;;;;;;;8.01;87.33;99751.22;5100779;28;20106;-64
2020/12/25 03:21:03;;;;;;;3.45;2.00;;;;;;;8.10;87.57;99745.22;5118996;28;20030;-63
2020/12/25 03:23:29;;;;;;;3.08;2.17;;;;;;;8.10;86.45;99750.00;5101180;28;20107;-62
2020/12/25 03:25:54;;;;;;;3.80;1.85;;;;;;;8.11;87.08;99746.81;5119138;28;20101;-62
2020/12/25 03:28:19;;;;;;;2.10;1.90;;;;;;;8.17;86.74;99739.59;5119115;28;20047;-63
2020/12/25 03:30:45;;;;;;;3.67;2.10;;;;;;;8.20;86.97;99733.19;5118955;28;20031;-62
2020/12/25 03:33:10;;;;;;;2.47;2.10;;;;;;;8.17;86.30;99734.00;5118968;28;20102;-63
2020/12/25 03:35:35;;;;;;;3.00;1.92;;;;;;;8.15;86.31;99735.59;5100695;28;20326;-61
2020/12/25 03:38:00;;;;;;;5.75;1.92;;;;;;;8.13;86.21;99738.00;5118969;28;20027;-62
2020/12/25 03:40:26;;;;;;;2.45;1.70;;;;;;;8.09;86.40;99737.22;5118899;28;20028;-62
2020/12/25 03:42:51;;;;;;;2.30;1.67;;;;;;;8.03;86.17;99748.81;5118562;28;20104;-63
2020/12/25 03:45:16;;;;;;;3.22;1.80;;;;;;;7.99;86.47;99738.84;5119031;28;20032;-62
2020/12/25 03:47:42;;;;;;;2.67;1.77;;;;;;;7.95;86.44;99740.84;5119108;28;20027;-63
2020/12/25 03:50:07;;;;;;;2.90;1.67;;;;;;;7.94;87.18;99730.81;5118180;28;20051;-60
2020/12/25 03:52:33;;;;;;;1.95;1.75;;;;;;;7.91;87.21;99742.81;5118616;28;20035;-63
2020/12/25 03:54:59;;;;;;;2.63;1.88;;;;;;;7.87;87.44;99734.44;5118524;28;20066;-62
2020/12/25 03:57:24;;;;;;;1.75;1.65;;;;;;;7.85;87.18;99739.63;5118558;28;20081;-62
2020/12/25 03:59:49;;;;;;;2.15;1.80;;;;;;;7.84;87.99;99737.22;5118362;28;20027;-61
2020/12/25 04:02:15;;;;;;;2.90;2.05;;;;;;;7.87;87.33;99736.44;5118427;28;20015;-62
2020/12/25 04:04:40;;;;;;;2.80;1.80;;;;;;;7.86;87.35;99735.63;5118223;28;20319;-62
2020/12/25 04:07:05;;;;;;;4.45;2.47;;;;;;;7.87;87.30;99728.81;5118534;28;20407;-63
2020/12/25 04:09:32;;;;;;;2.83;2.30;;;;;;;7.90;87.22;99727.22;5118296;28;20019;-63
2020/12/25 04:11:57;;;;;;;3.13;2.30;;;;;;;7.88;87.33;99730.44;5118234;28;20098;-62
2020/12/25 04:14:23;;;;;;;2.33;2.00;;;;;;;7.88;87.48;99721.22;5100193;28;20130;-63
2020/12/25 04:16:49;;;;;;;2.40;2.05;;;;;;;7.89;87.96;99728.44;5118112;28;20032;-63
2020/12/25 04:19:14;;;;;;;4.00;2.10;;;;;;;7.89;87.24;99728.44;5117844;28;20035;-63
2020/12/25 04:21:39;;;;;;;3.30;2.30;;;;;;;7.89;87.93;99734.03;5118070;28;20042;-61
2020/12/25 04:24:05;;;;;;;4.40;2.72;;;;;;;7.89;87.18;99728.44;5118160;28;20314;-63
2020/12/25 04:26:30;;;;;;;7.28;3.20;;;;;;;7.88;87.90;99735.22;5118598;28;20098;-63
2020/12/25 04:28:56;;;;;;;6.00;3.53;;;;;;;7.87;87.31;99733.63;5118121;28;20027;-63
2020/12/25 04:31:26;;;;;;;8.18;4.82;;;;;;;7.87;87.34;99740.03;5103354;28;20076;-64
2020/12/25 04:33:52;;;;;;;5.22;3.38;;;;;;;7.85;87.50;99733.22;5117681;28;20020;-63
2020/12/25 04:36:18;;;;;;;4.05;2.40;;;;;;;7.83;87.50;99735.63;5117794;28;20103;-64
2020/12/25 04:38:44;;;;;;;2.95;2.22;;;;;;;7.83;87.31;99730.03;5117667;28;20114;-63
2020/12/25 04:41:10;;;;;;;3.03;2.50;;;;;;;7.82;87.77;99729.25;5117802;28;20072;-64
2020/12/25 04:43:38;;;;;;;5.18;3.28;;;;;;;7.82;87.98;99726.44;5117791;28;20428;-63
2020/12/25 04:46:04;;;;;;;6.10;4.43;;;;;;;7.84;87.98;99724.03;5117449;28;20031;-64
2020/12/25 04:48:29;;;;;;;11.57;5.82;;;;;;;7.84;87.89;99728.84;5117268;28;20016;-64
2020/12/25 04:50:54;;;;;;;13.68;6.57;;;;;;;7.84;88.09;99732.44;5117587;28;20031;-57
2020/12/25 04:53:20;;;;;;;6.20;3.30;;;;;;;7.88;88.16;99722.03;5117260;28;20039;-64
2020/12/25 04:55:45;;;;;;;5.55;2.70;;;;;;;7.89;87.26;99712.44;5117524;28;20035;-63
2020/12/25 04:58:11;;;;;;;6.07;2.78;;;;;;;7.87;87.84;99722.44;5117303;28;20311;-63
2020/12/25 05:00:36;;;;;;;3.75;2.78;;;;;;;7.87;87.49;99726.03;5117280;28;20066;-63
2020/12/25 05:03:05;;;;;;;5.22;3.15;;;;;;;7.87;87.74;99725.22;5116988;28;20055;-63
2020/12/25 05:05:32;;;;;;;3.85;2.55;;;;;;;7.85;87.97;99730.44;5117205;28;20023;-63
2020/12/25 05:07:58;;;;;;;4.57;2.75;;;;;;;7.86;87.80;99732.81;5099307;28;20031;-64
2020/12/25 05:10:24;;;;;;;3.28;2.55;;;;;;;7.86;87.66;99738.44;5116922;28;20023;-64
2020/12/25 05:12:50;;;;;;;4.75;2.63;;;;;;;7.87;88.06;99737.22;5117175;28;20019;-63
2020/12/25 05:15:15;;;;;;;4.07;2.88;;;;;;;7.84;87.36;99737.22;5117040;28;20072;-64
2020/12/25 05:17:42;;;;;;;3.83;2.30;;;;;;;7.81;87.98;99738.84;5116450;28;20054;-63
2020/12/25 05:20:08;;;;;;;2.63;2.30;;;;;;;7.80;87.77;99742.03;5116595;28;20490;-63
2020/12/25 05:22:33;;;;;;;2.63;2.08;;;;;;;7.79;88.08;99737.63;5098672;28;20137;-65
2020/12/25 05:25:07;;;;;;;4.50;2.67;;;;;;;7.81;88.23;99738.84;5116877;28;20047;-64
2020/12/25 05:27:33;;;;;;;4.20;2.28;;;;;;;7.84;87.99;99748.41;5116790;28;20024;-63
2020/12/25 05:29:59;;;;;;;3.17;2.42;;;;;;;7.84;87.93;99748.41;5116916;28;20129;-63
2020/12/25 05:32:32;;;;;;;4.85;2.97;;;;;;;7.84;88.19;99760.41;5116252;28;20472;-63
2020/12/25 05:34:58;;;;;;;4.63;3.30;;;;;;;7.88;88.37;99738.03;5116866;28;20020;-63
2020/12/25 05:37:36;;;;;;;6.35;3.88;;;;;;;7.85;88.46;99731.22;5116880;28;20030;-62
2020/12/25 05:40:10;;;;;;;4.93;4.03;;;;;;;7.84;88.14;99732.44;5085091;28;20449;-63
2020/12/25 05:42:46;;;;;;;4.47;3.85;;;;;;;7.90;88.54;99730.03;5116806;28;20402;-63
2020/12/25 05:45:15;;;;;;;4.63;3.72;;;;;;;7.89;87.89;99728.44;5103568;28;20543;-63
2020/12/25 05:47:41;;;;;;;4.82;3.13;;;;;;;7.89;87.92;99739.63;5116795;28;20403;-63
2020/12/25 05:50:07;;;;;;;4.00;3.08;;;;;;;7.88;87.75;99738.03;5110698;28;20035;-60
2020/12/25 05:52:33;;;;;;;6.40;3.15;;;;;;;7.89;88.35;99750.81;5107654;28;20052;-63
2020/12/25 05:55:01;;;;;;;7.45;4.00;;;;;;;7.89;88.08;99759.22;5116285;28;20360;-63
2020/12/25 05:57:33;;;;;;;6.72;4.00;;;;;;;7.87;87.85;99762.41;5116351;28;20474;-63
2020/12/25 06:00:03;;;;;;;7.97;5.00;;;;;;;7.96;88.33;99756.44;5098018;28;20027;-64
2020/12/25 06:02:31;;;;;;;10.43;5.00;;;;;;;8.01;87.37;99744.81;5116047;28;20040;-63
2020/12/25 06:04:57;;;;;;;6.07;4.85;;;;;;;7.96;86.80;99745.25;5115986;28;20044;-63
2020/12/25 06:07:28;;;;;;;5.20;4.15;;;;;;;7.96;87.56;99743.25;5116343;28;20028;-63
2020/12/25 06:09:58;;;;;;;5.00;3.75;;;;;;;7.94;87.38;99753.19;5116172;28;20028;-63
2020/12/25 06:12:40;;;;;;;4.57;4.00;;;;;;;7.91;87.43;99732.41;5110044;28;20024;-63
2020/12/25 06:15:10;;;;;;;5.15;4.40;;;;;;;7.86;87.57;99720.84;5098333;28;20103;-63
2020/12/25 06:18:05;;;;;;;5.50;3.90;;;;;;;7.82;87.77;99714.44;5113196;28;20023;-63
2020/12/25 06:20:42;;;;;;;6.38;3.72;;;;;;;7.82;87.49;99723.63;5116015;28;20080;-63
2020/12/25 06:23:10;;;;;;;9.68;5.10;;;;;;;7.80;87.84;99714.84;5103343;28;20020;-63
2020/12/25 06:25:39;;;;;;;6.40;4.60;;;;;;;7.78;87.16;99716.47;5115979;28;20027;-63
2020/12/25 06:28:05;;;;;;;6.07;4.20;;;;;;;7.77;87.89;99734.44;5115933;28;20062;-63
2020/12/25 06:30:33;;;;;;;6.32;4.20;;;;;;;7.74;88.03;99738.84;5115638;28;20051;-64
2020/12/25 06:32:58;;;;;;;7.07;4.25;;;;;;;7.70;87.79;99722.06;5118210;28;20355;-63
2020/12/25 06:35:31;;;;;;;7.55;4.13;;;;;;;7.69;87.95;99730.84;5120462;28;20058;-63
2020/12/25 06:37:57;;;;;;;5.82;3.90;;;;;;;7.67;87.56;99739.63;5120106;28;20369;-64
2020/12/25 06:40:24;;;;;;;30.52;21.95;;;;;;;7.69;87.49;99737.25;5120113;28;20115;-63
2020/12/25 06:42:53;;;;;;;36.30;26.92;;;;;;;7.67;87.94;99744.41;5119650;28;20027;-63
2020/12/25 06:45:22;;;;;;;19.10;13.43;;;;;;;7.68;87.57;99749.63;5120198;28;20053;-63
2020/12/25 06:47:48;;;;;;;13.27;7.70;;;;;;;7.67;87.46;99756.44;5119671;28;20027;-64
2020/12/25 06:50:15;;;;;;;7.25;5.10;;;;;;;7.65;87.79;99758.78;5119846;28;20027;-66
2020/12/25 06:52:50;;;;;;;6.75;4.75;;;;;;;7.61;87.90;99757.19;5119667;28;20043;-64
2020/12/25 06:55:16;;;;;;;7.28;4.03;;;;;;;7.62;87.36;99753.19;5119951;28;20069;-64
2020/12/25 06:57:45;;;;;;;9.70;5.95;;;;;;;7.66;87.81;99771.56;5119498;28;20051;-64
2020/12/25 07:00:11;;;;;;;6.95;4.53;;;;;;;7.65;88.08;99780.38;5119941;28;20046;-64
2020/12/25 07:02:40;;;;;;;7.00;4.43;;;;;;;7.62;88.10;99764.38;5119502;28;20407;-63
2020/12/25 07:05:07;;;;;;;5.95;3.97;;;;;;;7.63;87.46;99757.59;5119459;28;20422;-63
2020/12/25 07:07:33;;;;;;;5.68;3.97;;;;;;;7.60;87.46;99766.78;5119678;28;20051;-63
2020/12/25 07:10:06;;;;;;;7.35;4.85;;;;;;;7.56;87.42;99755.59;5119459;28;20054;-63
2020/12/25 07:12:31;;;;;;;5.97;4.20;;;;;;;7.54;87.97;99746.81;5119386;28;20047;-64
2020/12/25 07:14:56;;;;;;;4.82;3.55;;;;;;;7.52;87.55;99757.59;5119462;28;20058;-63
2020/12/25 07:17:22;;;;;;;7.63;5.45;;;;;;;7.53;87.86;99764.78;5102147;28;20012;-62
2020/12/25 07:19:47;;;;;;;11.43;5.93;;;;;;;7.52;87.66;99779.97;5119241;28;20027;-63
2020/12/25 07:22:13;;;;;;;10.57;7.72;;;;;;;7.51;88.14;99777.56;5119369;28;20059;-63
2020/12/25 07:24:40;;;;;;;9.10;6.93;;;;;;;7.49;88.03;99777.97;5119050;28;20466;-65
2020/12/25 07:27:06;;;;;;;8.55;5.10;;;;;;;7.46;88.15;99784.34;5119033;28;20037;-63
2020/12/25 07:29:32;;;;;;;5.95;4.47;;;;;;;7.46;88.71;99795.53;5118954;28;20519;-63
2020/12/25 07:31:57;;;;;;;7.00;4.18;;;;;;;7.47;88.09;99801.94;5119070;28;20020;-63
2020/12/25 07:34:24;;;;;;;8.48;4.65;;;;;;;7.47;88.16;99801.94;5119067;28;20031;-63
2020/12/25 07:36:51;;;;;;;5.93;4.57;;;;;;;7.48;88.12;99804.34;5119001;28;20019;-63
2020/12/25 07:39:17;;;;;;;7.78;4.15;;;;;;;7.50;88.11;99807.53;5118958;28;20395;-63
2020/12/25 07:41:43;;;;;;;8.25;4.88;;;;;;;7.49;87.85;99805.94;5118471;28;20026;-63
2020/12/25 07:44:09;;;;;;;7.25;4.82;;;;;;;7.48;88.06;99801.53;5118494;28;20027;-63
2020/12/25 07:46:37;;;;;;;8.48;4.85;;;;;;;7.47;87.66;99802.72;5118666;28;20395;-63
2020/12/25 07:49:03;;;;;;;6.90;4.95;;;;;;;7.47;88.19;99808.31;5100828;28;20114;-63
2020/12/25 07:51:28;;;;;;;7.43;5.55;;;;;;;7.48;88.05;99821.09;5109747;28;20372;-64
2020/12/25 07:53:54;;;;;;;11.20;6.03;;;;;;;7.47;88.47;99807.53;5107717;28;20120;-60
2020/12/25 07:56:22;;;;;;;8.65;5.57;;;;;;;7.44;88.23;99798.72;5104708;28;20028;-63
2020/12/25 07:58:49;;;;;;;7.15;5.85;;;;;;;7.44;88.72;99803.53;5112047;28;20024;-63
2020/12/25 08:01:17;;;;;;;9.02;6.82;;;;;;;7.43;88.64;99799.13;5105987;28;20106;-63
2020/12/25 08:03:42;;;;;;;11.30;6.63;;;;;;;7.42;88.10;99803.13;5110227;28;20052;-63
2020/12/25 08:06:10;;;;;;;18.75;9.88;;;;;;;7.42;88.98;99811.50;5108667;28;20540;-63
2020/12/25 08:08:36;;;;;;;17.77;9.57;;;;;;;7.43;89.19;99819.50;5110133;28;20023;-63
2020/12/25 08:11:01;;;;;;;27.40;12.57;;;;;;;7.41;88.72;99821.09;5110702;28;20365;-63
2020/12/25 08:13:28;;;;;;;26.73;14.85;;;;;;;7.41;88.44;99832.28;5106684;28;20028;-63
2020/12/25 08:15:53;;;;;;;16.50;9.85;;;;;;;7.41;88.43;99837.88;5118088;28;20410;-62
2020/12/25 08:18:19;;;;;;;10.68;8.13;;;;;;;7.47;88.89;99825.09;5112315;28;20048;-63
2020/12/25 08:20:52;;;;;;;15.90;9.02;;;;;;;7.46;88.52;99817.91;5099773;28;20031;-62
2020/12/25 08:23:18;;;;;;;14.10;9.07;;;;;;;7.44;88.33;99821.09;5118231;28;20102;-62
2020/12/25 08:25:52;;;;;;;10.27;7.35;;;;;;;7.47;88.73;99827.09;5117693;28;20106;-61
2020/12/25 08:28:18;;;;;;;13.30;8.18;;;;;;;7.45;88.70;99833.09;5118250;28;20319;-62
2020/12/25 08:30:44;;;;;;;10.70;8.05;;;;;;;7.45;88.21;99827.50;5117906;28;20051;-63
2020/12/25 08:33:09;;;;;;;13.55;8.35;;;;;;;7.43;88.03;99829.88;5099904;28;20051;-63
2020/12/25 08:35:34;;;;;;;11.02;7.75;;;;;;;7.41;88.38;99832.28;5118011;28;20031;-62
2020/12/25 08:38:02;;;;;;;13.23;7.78;;;;;;;7.42;88.68;99845.88;5117764;28;20386;-62
2020/12/25 08:40:33;;;;;;;13.60;6.70;;;;;;;7.46;88.41;99836.69;5117734;28;20031;-62
2020/12/25 08:43:11;;;;;;;15.32;7.57;;;;;;;7.45;88.60;99827.50;5099395;28;20015;-62
2020/12/25 08:45:54;;;;;;;16.50;9.23;;;;;;;7.46;88.47;99833.88;5117574;28;20051;-63
2020/12/25 08:48:19;;;;;;;17.65;10.70;;;;;;;7.44;88.58;99823.91;5099420;28;20019;-61
2020/12/25 08:50:45;;;;;;;16.52;10.77;;;;;;;7.44;88.30;99825.91;5117414;28;20119;-63
2020/12/25 08:53:21;;;;;;;18.80;11.73;;;;;;;7.44;88.45;99839.88;5117447;28;20444;-61
2020/12/25 08:55:48;;;;;;;15.27;10.93;;;;;;;7.46;89.20;99850.66;5111858;28;20032;-63
2020/12/25 08:58:22;;;;;;;13.60;10.18;;;;;;;7.47;88.55;99835.47;5106116;28;20322;-62
2020/12/25 09:00:57;;;;;;;13.27;10.55;;;;;;;7.44;89.06;99832.28;5107542;28;20026;-63
2020/12/25 09:03:23;;;;;;;19.90;12.65;;;;;;;7.44;88.73;99839.88;5106071;28;20180;-63
2020/12/25 09:05:49;;;;;;;38.13;19.52;;;;;;;7.44;88.78;99839.88;5104267;28;20568;-61
2020/12/25 09:08:15;;;;;;;33.38;17.13;;;;;;;7.43;88.99;99843.88;5104142;28;20066;-58
2020/12/25 09:10:40;;;;;;;16.85;11.82;;;;;;;7.42;88.32;99845.06;5116676;28;20356;-60
2020/12/25 09:13:05;;;;;;;15.60;10.65;;;;;;;7.41;88.76;99860.25;5100564;28;20395;-60
2020/12/25 09:15:31;;;;;;;16.92;12.43;;;;;;;7.42;88.82;99856.25;5112186;28;20016;-59
2020/12/25 09:17:56;;;;;;;16.58;12.05;;;;;;;7.44;89.03;99853.84;5098348;28;20382;-63
2020/12/25 09:20:21;;;;;;;18.50;12.60;;;;;;;7.43;89.34;99849.47;5100642;28;20020;-62
2020/12/25 09:22:47;;;;;;;21.05;15.23;;;;;;;7.44;89.13;99854.66;5098474;28;20027;-60
2020/12/25 09:25:12;;;;;;;19.95;12.90;;;;;;;7.47;89.50;99852.25;5105609;28;20076;-59
2020/12/25 09:27:38;;;;;;;16.30;10.75;;;;;;;7.49;89.42;99847.88;5107583;28;20032;-60
2020/12/25 09:30:03;;;;;;;19.92;12.27;;;;;;;7.50;89.03;99846.69;5108693;28;20058;-62
2020/12/25 09:32:29;;;;;;;22.13;14.02;;;;;;;7.52;89.32;99849.88;5097544;28;20066;-66
2020/12/25 09:34:54;;;;;;;22.98;13.82;;;;;;;7.57;89.29;99857.88;5106244;28;20304;-63
2020/12/25 09:37:19;;;;;;;19.38;11.75;;;;;;;7.65;89.00;99847.50;5110766;28;20047;-63
2020/12/25 09:39:45;;;;;;;15.88;8.82;;;;;;;7.70;88.95;99847.94;5106577;28;20061;-61
2020/12/25 09:42:10;;;;;;;15.85;10.02;;;;;;;7.75;89.08;99855.13;5100977;28;20104;-62
2020/12/25 09:44:36;;;;;;;20.30;11.63;;;;;;;7.75;88.33;99858.72;5107984;28;20074;-64
2020/12/25 09:47:02;;;;;;;30.38;16.25;;;;;;;7.78;88.16;99859.94;5102938;28;20028;-58
2020/12/25 09:49:27;;;;;;;25.77;13.85;;;;;;;7.82;88.81;99866.34;5100688;28;20047;-63
2020/12/25 09:51:53;;;;;;;20.42;11.05;;;;;;;7.82;87.78;99868.31;5104454;28;20114;-63
2020/12/25 09:54:18;;;;;;;17.40;9.23;;;;;;;7.81;88.17;99867.53;5100772;28;20023;-64
2020/12/25 09:56:44;;;;;;;14.27;9.35;;;;;;;7.82;88.01;99868.31;5111006;28;20054;-60
2020/12/25 09:59:09;;;;;;;17.83;11.05;;;;;;;7.82;87.98;99857.13;5100843;28;20070;-61
2020/12/25 10:01:34;;;;;;;17.08;10.25;;;;;;;7.81;88.09;99853.53;5102039;28;20020;-61
2020/12/25 10:04:00;;;;;;;13.50;9.35;;;;;;;7.82;88.36;99840.34;5102782;28;20035;-60
2020/12/25 10:06:27;;;;;;;12.80;9.38;;;;;;;7.82;88.57;99840.34;5100107;28;20073;-56
2020/12/25 10:08:52;;;;;;;13.85;8.32;;;;;;;7.88;88.25;99833.97;5104783;28;20024;-67
2020/12/25 10:11:20;;;;;;;13.18;7.97;;;;;;;7.89;88.28;99823.56;5104606;28;20460;-61
2020/12/25 10:13:46;;;;;;;13.65;7.82;;;;;;;7.87;87.83;99832.34;5107317;28;20072;-59
2020/12/25 10:16:11;;;;;;;20.40;11.55;;;;;;;7.86;87.97;99830.75;5106049;28;20024;-64
2020/12/25 10:18:37;;;;;;;14.88;8.20;;;;;;;7.86;88.10;99829.97;5085642;28;20023;-60
2020/12/25 10:21:02;;;;;;;11.10;7.43;;;;;;;7.85;88.26;99845.16;5095957;28;20026;-60
2020/12/25 10:23:27;;;;;;;12.43;7.43;;;;;;;7.83;87.54;99847.53;5116150;28;20019;-61
2020/12/25 10:25:53;;;;;;;11.50;8.20;;;;;;;7.88;88.29;99855.53;5114704;28;20059;-62
2020/12/25 10:28:18;;;;;;;11.20;8.07;;;;;;;7.89;87.43;99860.75;5116015;28;20027;-60
2020/12/25 10:30:43;;;;;;;8.32;5.97;;;;;;;7.96;87.58;99874.75;5113639;28;20058;-67
2020/12/25 10:33:10;;;;;;;8.85;6.90;;;;;;;7.99;87.21;99870.38;5115666;28;20023;-68
2020/12/25 10:35:35;;;;;;;9.20;6.65;;;;;;;8.03;86.42;99871.16;5114569;28;20027;-66
2020/12/25 10:38:01;;;;;;;14.20;6.78;;;;;;;8.10;85.80;99865.56;5114009;28;20027;-60
2020/12/25 10:40:26;;;;;;;18.30;9.48;;;;;;;8.08;85.00;99879.16;5110332;28;20419;-64
2020/12/25 10:42:51;;;;;;;16.27;9.65;;;;;;;8.04;84.79;99886.75;5099304;28;20024;-66
2020/12/25 10:45:17;;;;;;;18.15;11.35;;;;;;;8.06;85.04;99876.75;5096279;28;20028;-67
2020/12/25 10:47:42;;;;;;;10.68;8.38;;;;;;;8.09;84.80;99883.56;5098153;28;20019;-68
2020/12/25 10:50:07;;;;;;;9.73;7.80;;;;;;;8.11;84.29;99869.97;5101177;28;20038;-65
2020/12/25 10:52:32;;;;;;;13.55;9.80;;;;;;;8.09;84.14;99871.56;5096947;28;20434;-66
2020/12/25 10:54:58;;;;;;;9.75;6.88;;;;;;;8.08;84.48;99870.75;5094922;28;20105;-66
2020/12/25 10:57:23;;;;;;;16.70;11.48;;;;;;;8.03;84.01;99860.78;5102752;28;20050;-63
2020/12/25 10:59:50;;;;;;;10.63;8.25;;;;;;;8.03;84.14;99868.38;5109799;28;20035;-65
2020/12/25 11:02:15;;;;;;;9.18;6.10;;;;;;;8.03;84.54;99854.38;5104151;28;20034;-64
2020/12/25 11:04:41;;;;;;;6.40;5.32;;;;;;;7.98;84.67;99851.97;5104693;28;20024;-64
2020/12/25 11:07:06;;;;;;;10.60;7.35;;;;;;;7.97;84.87;99851.19;5109215;28;20057;-64
2020/12/25 11:09:31;;;;;;;20.85;11.98;;;;;;;7.95;85.06;99849.97;5112891;28;20062;-64
2020/12/25 11:11:57;;;;;;;16.80;11.13;;;;;;;7.96;85.07;99840.38;5109791;28;20027;-63
2020/12/25 11:14:22;;;;;;;13.25;9.93;;;;;;;7.95;84.47;99835.97;5109109;28;20107;-63
2020/12/25 11:16:48;;;;;;;12.68;9.23;;;;;;;7.92;84.70;99833.97;5099814;28;20082;-66
2020/12/25 11:19:13;;;;;;;8.73;6.43;;;;;;;7.92;84.54;99829.16;5114815;28;20047;-67
2020/12/25 11:21:38;;;;;;;7.10;5.70;;;;;;;7.90;83.79;99830.75;5119202;28;20073;-66
2020/12/25 11:24:05;;;;;;;8.13;6.43;;;;;;;7.91;84.56;99827.56;5118936;28;20030;-67
2020/12/25 11:26:33;;;;;;;11.30;7.13;;;;;;;7.91;84.42;99829.56;5115843;28;20031;-66
2020/12/25 11:29:00;;;;;;;7.03;5.82;;;;;;;7.92;83.42;99831.97;5100628;28;20035;-67
2020/12/25 11:31:27;;;;;;;7.18;6.10;;;;;;;7.90;83.60;99831.56;5098448;28;20342;-62
2020/12/25 11:33:53;;;;;;;8.35;5.70;;;;;;;7.90;83.18;99827.97;5099914;28;20465;-64
2020/12/25 11:36:19;;;;;;;7.97;6.32;;;;;;;7.88;82.94;99833.97;5101715;28;20043;-66